createdAt,value
2023-04-17T00:02:26.195Z,22.1
2023-04-17T00:08:19.903Z,22.1
2023-04-17T00:14:26.280Z,22.1
2023-04-17T00:20:18.620Z,22.1
2023-04-17T00:25:54.101Z,22.1
2023-04-17T00:31:15.820Z,22.1
2023-04-17T00:37:07.564Z,22.1
2023-04-17T00:42:58.974Z,22.1
2023-04-17T00:48:50.788Z,22
2023-04-17T00:54:42.438Z,22
2023-04-17T01:00:34.625Z,22
2023-04-17T01:06:29.327Z,22.1
2023-04-17T01:12:05.344Z,22.1
2023-04-17T01:17:41.235Z,22.2
2023-04-17T01:23:33.196Z,22.3
2023-04-17T01:29:24.063Z,22.4
2023-04-17T01:35:15.912Z,22.4
2023-04-17T01:40:51.957Z,22.6
2023-04-17T01:46:43.855Z,22.6
2023-04-17T01:52:20.172Z,22.7
2023-04-17T01:57:56.597Z,22.8
2023-04-17T02:03:49.136Z,22.8
2023-04-17T02:09:26.536Z,22.9
2023-04-17T02:15:17.918Z,22.9
2023-04-17T02:20:54.277Z,22.9
2023-04-17T02:26:30.774Z,23
2023-04-17T02:32:22.945Z,23.1
2023-04-17T02:38:13.819Z,23.1
2023-04-17T02:44:05.343Z,23.1
2023-04-17T02:49:42.402Z,23.1
2023-04-17T02:55:34.001Z,23.1
2023-04-17T03:01:25.414Z,23.1
2023-04-17T03:07:19.231Z,23.2
2023-04-17T03:13:10.473Z,23.2
2023-04-17T03:19:04.910Z,23.2
2023-04-17T03:24:56.705Z,23.2
2023-04-17T03:30:32.332Z,23.3
2023-04-17T03:36:11.421Z,23.3
2023-04-17T03:42:03.907Z,23.3
2023-04-17T03:47:40.110Z,23.3
2023-04-17T03:53:16.475Z,23.3
2023-04-17T03:59:07.850Z,23.3
2023-04-17T04:04:45.906Z,23.3
2023-04-17T04:10:36.941Z,23.3
2023-04-17T04:16:13.734Z,23.1
2023-04-17T04:21:49.720Z,22.9
2023-04-17T04:27:42.486Z,22.8
2023-04-17T04:33:20.881Z,22.7
2023-04-17T04:38:44.285Z,22.7
2023-04-17T04:44:20.523Z,22.7
2023-04-17T04:49:41.874Z,22.6
2023-04-17T04:55:01.710Z,22.6
2023-04-17T05:00:37.422Z,22.6
2023-04-17T05:06:17.084Z,22.6
2023-04-17T05:11:53.362Z,22.6
2023-04-17T05:17:46.697Z,22.6
2023-04-17T05:23:38.773Z,22.6
2023-04-17T05:29:14.488Z,22.5
2023-04-17T05:34:51.059Z,22.5
2023-04-17T05:40:30.859Z,22.5
2023-04-17T05:46:06.220Z,22.5
2023-04-17T05:51:42.753Z,22.5
2023-04-17T05:57:19.777Z,22.4
2023-04-17T06:03:11.043Z,22.4
2023-04-17T06:08:50.984Z,22.4
2023-04-17T06:14:29.498Z,22.4
2023-04-17T06:20:05.616Z,22.4
2023-04-17T06:25:43.403Z,22.4
2023-04-17T06:31:19.506Z,22.4
2023-04-17T06:37:04.065Z,22.3
2023-04-17T06:42:24.651Z,22.3
2023-04-17T06:48:01.672Z,22.3
2023-04-17T06:53:37.390Z,22.3
2023-04-17T06:59:13.273Z,22.3
2023-04-17T07:04:55.035Z,22.2
2023-04-17T07:10:15.312Z,22.1
2023-04-17T07:15:36.501Z,22.1
2023-04-17T07:21:14.606Z,22.1
2023-04-17T07:26:50.949Z,22.1
2023-04-17T07:32:27.725Z,22
2023-04-17T07:38:04.735Z,22
2023-04-17T07:43:44.002Z,21.9
2023-04-17T07:49:09.999Z,21.9
2023-04-17T07:54:47.982Z,21.9
2023-04-17T08:00:26.712Z,21.9
2023-04-17T08:05:50.385Z,21.9
2023-04-17T08:11:29.688Z,21.9
2023-04-17T08:17:01.393Z,21.9
2023-04-17T08:22:38.183Z,21.9
2023-04-17T08:28:18.207Z,21.8
2023-04-17T08:34:27.140Z,21.8
2023-04-17T08:40:06.299Z,21.8
2023-04-17T08:46:00.172Z,21.8
2023-04-17T08:51:52.172Z,21.8
2023-04-17T08:57:12.626Z,21.8
2023-04-17T09:02:51.041Z,21.8
2023-04-17T09:08:29.231Z,21.8
2023-04-17T09:14:21.308Z,21.7
2023-04-17T09:19:43.434Z,21.7
2023-04-17T09:25:19.687Z,21.7
2023-04-17T09:30:40.895Z,21.7
2023-04-17T09:36:02.518Z,21.7
2023-04-17T09:41:57.165Z,21.7
2023-04-17T09:47:48.873Z,21.6
2023-04-17T09:53:42.194Z,21.6
2023-04-17T09:59:18.862Z,21.6
2023-04-17T10:05:12.786Z,21.6
2023-04-17T10:11:05.374Z,21.6
2023-04-17T10:16:57.303Z,21.6
2023-04-17T10:22:51.499Z,21.6
2023-04-17T10:28:44.283Z,21.6
2023-04-17T10:34:39.939Z,21.6
2023-04-17T10:40:17.222Z,21.6
2023-04-17T10:46:10.048Z,21.6
2023-04-17T10:52:03.614Z,21.6
2023-04-17T10:57:55.660Z,21.6
2023-04-17T11:03:53.206Z,21.5
2023-04-17T11:09:30.965Z,21.5
2023-04-17T11:15:23.822Z,21.5
2023-04-17T11:21:01.313Z,21.5
2023-04-17T11:26:37.886Z,21.5
2023-04-17T11:31:58.755Z,21.5
2023-04-17T11:37:36.529Z,21.5
2023-04-17T11:42:57.893Z,21.5
2023-04-17T11:48:50.279Z,21.5
2023-04-17T11:54:41.923Z,21.5
2023-04-17T12:00:34.312Z,21.5
2023-04-17T12:06:13.981Z,21.5
2023-04-17T12:12:06.548Z,21.5
2023-04-17T12:17:42.627Z,21.5
2023-04-17T12:23:34.319Z,21.5
2023-04-17T12:28:55.609Z,21.5
2023-04-17T12:34:47.847Z,21.6
2023-04-17T12:40:41.254Z,21
2023-04-17T12:46:31.609Z,45.3
2023-04-17T12:52:23.075Z,36.6
2023-04-17T12:58:14.160Z,34.1
2023-04-17T13:04:08.766Z,32.1
2023-04-17T13:09:44.972Z,30.5
2023-04-17T13:15:20.875Z,29.3
2023-04-17T13:21:14.815Z,28.2
2023-04-17T13:27:06.151Z,27.3
2023-04-17T13:32:59.992Z,26.6
2023-04-17T13:38:54.739Z,25.9
2023-04-17T13:44:31.586Z,25.5
2023-04-17T13:50:25.583Z,25
2023-04-17T13:56:18.877Z,24.6
2023-04-17T14:01:54.860Z,24.3
2023-04-17T14:07:35.341Z,24
2023-04-17T14:13:30.390Z,23.8
2023-04-17T14:19:30.362Z,23.5
2023-04-17T14:24:50.711Z,23.3
2023-04-17T14:30:27.206Z,23.1
2023-04-17T14:36:05.730Z,23
2023-04-17T14:41:45.150Z,22.9
2023-04-17T14:47:54.518Z,22.8
2023-04-17T14:53:56.798Z,22.6
2023-04-17T14:59:47.711Z,22.5
2023-04-17T15:05:41.444Z,22.4
2023-04-17T15:11:33.564Z,22.3
2023-04-17T15:17:09.735Z,22.3
2023-04-17T15:23:01.587Z,22.2
2023-04-17T15:28:52.883Z,22.2
2023-04-17T15:34:44.175Z,22.1
2023-04-17T15:40:36.193Z,22.1
2023-04-17T15:46:31.570Z,21.9
2023-04-17T15:52:47.959Z,21.9
2023-04-17T15:58:39.576Z,21.9
2023-04-17T16:04:32.905Z,21.8
2023-04-17T16:10:09.068Z,21.8
2023-04-17T16:16:00.725Z,21.8
2023-04-17T16:21:52.591Z,21.8
2023-04-17T16:27:44.193Z,21.7
2023-04-17T16:33:21.611Z,21.6
2023-04-17T16:39:02.404Z,21.6
2023-04-17T16:44:39.765Z,21.6
2023-04-17T16:51:12.371Z,21.6
2023-04-17T16:57:03.708Z,21.6
2023-04-17T17:02:55.393Z,21.5
2023-04-17T17:08:32.674Z,21.5
2023-04-17T17:13:38.053Z,21.4
2023-04-17T17:19:29.875Z,21.4
2023-04-17T17:25:05.406Z,21.4
2023-04-17T17:30:56.617Z,21.4
2023-04-17T17:36:44.413Z,21.4
2023-04-17T17:42:21.499Z,21.4
2023-04-17T17:48:15.038Z,21.4
2023-04-17T17:54:09.122Z,21.4
2023-04-17T17:59:59.005Z,21.3
2023-04-17T18:05:37.971Z,21.3
2023-04-17T18:10:58.390Z,21.3
2023-04-17T18:16:35.589Z,21.3
2023-04-17T18:22:11.724Z,21.3
2023-04-17T18:27:47.184Z,21.3
2023-04-17T18:33:23.926Z,21.3
2023-04-17T18:39:18.755Z,21.3
2023-04-17T18:44:54.318Z,21.3
2023-04-17T18:50:31.189Z,21.3
2023-04-17T18:56:13.373Z,21.3
2023-04-17T19:01:35.170Z,21.3
2023-04-17T19:06:57.999Z,21.3
2023-04-17T19:12:50.694Z,21.2
2023-04-17T19:18:43.395Z,21.2
2023-04-17T19:24:36.320Z,21.2
2023-04-17T19:30:13.769Z,21.2
2023-04-17T19:36:06.996Z,21.2
2023-04-17T19:41:40.858Z,21.2
2023-04-17T19:47:36.289Z,21.2
2023-04-17T19:52:58.987Z,21.2
2023-04-17T19:58:37.158Z,21.2
2023-04-17T20:04:18.415Z,21.2
2023-04-17T20:09:54.983Z,21.2
2023-04-17T20:15:47.139Z,21.2
2023-04-17T20:21:25.986Z,21.2
2023-04-17T20:27:17.363Z,21.2
2023-04-17T20:33:10.864Z,21.2
2023-04-17T20:38:46.407Z,21.2
2023-04-17T20:44:23.141Z,21.2
2023-04-17T20:50:28.502Z,21.2
2023-04-17T20:56:19.873Z,21.2
2023-04-17T21:02:24.824Z,21.2
2023-04-17T21:07:46.996Z,21.3
2023-04-17T21:13:23.092Z,21.3
2023-04-17T21:18:44.061Z,21.3
2023-04-17T21:24:35.832Z,21.3
2023-04-17T21:30:10.902Z,21.3
2023-04-17T21:35:47.837Z,21.3
2023-04-17T21:41:26.444Z,21.3
2023-04-17T21:47:17.853Z,21.2
2023-04-17T21:53:08.917Z,21.2
2023-04-17T21:59:00.818Z,21.2
2023-04-17T22:04:52.398Z,21.2
2023-04-17T22:10:24.133Z,21.2
2023-04-17T22:16:00.386Z,21.2
2023-04-17T22:21:52.403Z,21.2
2023-04-17T22:38:55.702Z,21.2
2023-04-17T23:01:31.813Z,21.1
2023-04-17T23:13:00.898Z,21.1
2023-04-17T23:18:21.916Z,21.1
2023-04-17T23:23:43.461Z,21.1
2023-04-17T23:29:24.449Z,21.1
2023-04-17T23:35:00.803Z,21.1
2023-04-17T23:40:37.407Z,21.1
2023-04-17T23:46:14.255Z,21.1
2023-04-17T23:52:05.990Z,21.1
2023-04-17T23:57:58.394Z,21.1
